Címlap Spotter Aktuális időjárásjelentés, előrejelzés Debrecen Airport (METAR/TAF LHDC/DEB)

Aktuális időjárásjelentés, előrejelzés Debrecen Airport (METAR/TAF LHDC/DEB)

Aktuális szöveges időjárásjelentés / METAR DEB/LHDC és 24 órás szöveges időjárás-előrejelzés / TAF DEB/LHDCDebrecen Airport

Available data for LHDC from the past 6 hours
Metar
LHDC 201036Z 02006KT 6000 NSC 16/10 Q1023

10:36 UTC

Wind: 20° 6kt

Visibility: 6000 m

Sky:

Temp: 16 deg C / 60.8 deg F

Dewpoint: 10 deg C / 50 deg F

Pressure: 1023 hPa

TAF
TAF LHDC 200815Z 2009/2018 02005KT 5000 BR NSC BECMG 2009/2012 02010KT 9999 NSW SCT030 BKN070 TEMPO 2012/2015 SCT035 SCT100

Európa műholdkép

Data is taken from the National Weather Service at NOAA. Satelite image by AustroControl & Meteo-Mc. Only for spotters, do not use for real flight!

A METAR és a TAF adatok a National Weather Service adatbázisából származnak. Az oldalon közölt adatok tájékoztató jellegűek, az oldal üzemeltetője nem vállal felelősséget ezek esetleges pontatlanságáért. Ne használd valós repüléshez!

Néhány hasznos infó, mielőtt repülőre szállsz